sensor_id;sensor_type;location;lat;lon;timestamp;P1;durP1;ratioP1;P2;durP2;ratioP2
5688;SDS011;2869;50.432;8.680;2022-12-07T00:01:46;40.20;;;19.50;;
5688;SDS011;2869;50.432;8.680;2022-12-07T00:04:14;38.50;;;19.60;;
5688;SDS011;2869;50.432;8.680;2022-12-07T00:06:43;37.33;;;19.17;;
5688;SDS011;2869;50.432;8.680;2022-12-07T00:09:12;42.50;;;19.80;;
5688;SDS011;2869;50.432;8.680;2022-12-07T00:11:42;41.90;;;19.97;;
5688;SDS011;2869;50.432;8.680;2022-12-07T00:14:10;38.53;;;18.57;;
5688;SDS011;2869;50.432;8.680;2022-12-07T00:16:39;40.90;;;19.83;;
5688;SDS011;2869;50.432;8.680;2022-12-07T00:19:06;44.63;;;21.33;;
5688;SDS011;2869;50.432;8.680;2022-12-07T00:21:34;45.13;;;18.20;;
5688;SDS011;2869;50.432;8.680;2022-12-07T00:24:02;37.57;;;19.10;;
5688;SDS011;2869;50.432;8.680;2022-12-07T00:26:30;43.20;;;20.60;;
5688;SDS011;2869;50.432;8.680;2022-12-07T00:29:00;35.90;;;17.97;;
5688;SDS011;2869;50.432;8.680;2022-12-07T00:31:29;35.27;;;18.03;;
5688;SDS011;2869;50.432;8.680;2022-12-07T00:34:00;39.00;;;19.60;;
5688;SDS011;2869;50.432;8.680;2022-12-07T00:36:27;43.03;;;20.30;;
5688;SDS011;2869;50.432;8.680;2022-12-07T00:38:54;38.83;;;18.63;;
5688;SDS011;2869;50.432;8.680;2022-12-07T00:41:21;42.27;;;20.23;;
5688;SDS011;2869;50.432;8.680;2022-12-07T00:43:49;41.50;;;19.90;;
5688;SDS011;2869;50.432;8.680;2022-12-07T00:46:18;34.50;;;18.33;;
5688;SDS011;2869;50.432;8.680;2022-12-07T00:48:46;37.77;;;18.07;;
5688;SDS011;2869;50.432;8.680;2022-12-07T00:51:14;43.33;;;19.30;;
5688;SDS011;2869;50.432;8.680;2022-12-07T00:53:42;35.87;;;18.00;;
5688;SDS011;2869;50.432;8.680;2022-12-07T00:56:12;35.23;;;18.33;;
5688;SDS011;2869;50.432;8.680;2022-12-07T00:58:40;38.03;;;19.60;;
5688;SDS011;2869;50.432;8.680;2022-12-07T01:01:07;33.83;;;17.70;;
5688;SDS011;2869;50.432;8.680;2022-12-07T01:03:36;35.03;;;16.70;;
5688;SDS011;2869;50.432;8.680;2022-12-07T01:06:03;34.77;;;17.63;;
5688;SDS011;2869;50.432;8.680;2022-12-07T01:08:31;44.10;;;18.70;;
5688;SDS011;2869;50.432;8.680;2022-12-07T01:11:00;39.23;;;18.27;;
5688;SDS011;2869;50.432;8.680;2022-12-07T01:13:29;37.50;;;17.80;;
5688;SDS011;2869;50.432;8.680;2022-12-07T01:15:56;39.03;;;18.30;;
5688;SDS011;2869;50.432;8.680;2022-12-07T01:18:25;39.07;;;18.93;;
5688;SDS011;2869;50.432;8.680;2022-12-07T01:21:00;36.23;;;16.57;;
5688;SDS011;2869;50.432;8.680;2022-12-07T01:23:29;28.60;;;14.10;;
5688;SDS011;2869;50.432;8.680;2022-12-07T01:25:56;29.10;;;15.20;;
5688;SDS011;2869;50.432;8.680;2022-12-07T01:28:23;23.27;;;13.33;;
5688;SDS011;2869;50.432;8.680;2022-12-07T01:30:57;24.10;;;12.70;;
5688;SDS011;2869;50.432;8.680;2022-12-07T01:33:26;17.97;;;10.17;;
5688;SDS011;2869;50.432;8.680;2022-12-07T01:35:53;21.97;;;9.50;;
5688;SDS011;2869;50.432;8.680;2022-12-07T01:38:21;18.23;;;9.80;;
5688;SDS011;2869;50.432;8.680;2022-12-07T01:40:53;17.80;;;9.80;;
5688;SDS011;2869;50.432;8.680;2022-12-07T01:43:20;16.60;;;9.07;;
5688;SDS011;2869;50.432;8.680;2022-12-07T01:45:49;18.17;;;9.50;;
5688;SDS011;2869;50.432;8.680;2022-12-07T01:48:16;16.43;;;8.57;;
5688;SDS011;2869;50.432;8.680;2022-12-07T01:50:48;16.80;;;8.90;;
5688;SDS011;2869;50.432;8.680;2022-12-07T01:53:17;13.17;;;7.70;;
5688;SDS011;2869;50.432;8.680;2022-12-07T01:55:45;15.13;;;8.10;;
5688;SDS011;2869;50.432;8.680;2022-12-07T01:58:16;11.50;;;7.23;;
5688;SDS011;2869;50.432;8.680;2022-12-07T02:00:43;11.07;;;6.53;;
5688;SDS011;2869;50.432;8.680;2022-12-07T02:03:11;12.50;;;7.10;;
5688;SDS011;2869;50.432;8.680;2022-12-07T02:05:43;13.50;;;7.13;;
5688;SDS011;2869;50.432;8.680;2022-12-07T02:08:11;11.80;;;7.40;;
5688;SDS011;2869;50.432;8.680;2022-12-07T02:10:38;14.20;;;7.30;;
5688;SDS011;2869;50.432;8.680;2022-12-07T02:13:08;12.13;;;7.60;;
5688;SDS011;2869;50.432;8.680;2022-12-07T02:15:41;12.10;;;7.60;;
5688;SDS011;2869;50.432;8.680;2022-12-07T02:18:17;11.73;;;7.43;;
5688;SDS011;2869;50.432;8.680;2022-12-07T02:20:51;16.00;;;7.70;;
5688;SDS011;2869;50.432;8.680;2022-12-07T02:26:16;13.90;;;7.00;;
5688;SDS011;2869;50.432;8.680;2022-12-07T02:31:41;14.20;;;6.87;;
5688;SDS011;2869;50.432;8.680;2022-12-07T02:34:13;13.37;;;6.90;;
5688;SDS011;2869;50.432;8.680;2022-12-07T02:36:46;14.27;;;7.47;;
5688;SDS011;2869;50.432;8.680;2022-12-07T02:39:19;10.90;;;6.90;;
5688;SDS011;2869;50.432;8.680;2022-12-07T02:41:51;10.20;;;7.30;;
5688;SDS011;2869;50.432;8.680;2022-12-07T02:44:23;13.27;;;7.00;;
5688;SDS011;2869;50.432;8.680;2022-12-07T02:46:54;9.63;;;6.77;;
5688;SDS011;2869;50.432;8.680;2022-12-07T02:49:23;8.87;;;6.70;;
5688;SDS011;2869;50.432;8.680;2022-12-07T02:51:52;14.67;;;7.77;;
5688;SDS011;2869;50.432;8.680;2022-12-07T02:54:20;12.73;;;7.63;;
5688;SDS011;2869;50.432;8.680;2022-12-07T02:56:48;13.60;;;7.77;;
5688;SDS011;2869;50.432;8.680;2022-12-07T02:59:19;11.47;;;8.10;;
5688;SDS011;2869;50.432;8.680;2022-12-07T03:01:56;13.97;;;8.77;;
5688;SDS011;2869;50.432;8.680;2022-12-07T03:04:35;13.83;;;8.10;;
5688;SDS011;2869;50.432;8.680;2022-12-07T03:07:11;18.50;;;9.13;;
5688;SDS011;2869;50.432;8.680;2022-12-07T03:09:45;10.10;;;6.57;;
5688;SDS011;2869;50.432;8.680;2022-12-07T03:12:20;13.07;;;8.33;;
5688;SDS011;2869;50.432;8.680;2022-12-07T03:14:57;15.73;;;9.20;;
5688;SDS011;2869;50.432;8.680;2022-12-07T03:17:31;16.80;;;8.20;;
5688;SDS011;2869;50.432;8.680;2022-12-07T03:20:02;14.37;;;8.03;;
5688;SDS011;2869;50.432;8.680;2022-12-07T03:22:32;16.10;;;9.00;;
5688;SDS011;2869;50.432;8.680;2022-12-07T03:25:02;15.10;;;9.67;;
5688;SDS011;2869;50.432;8.680;2022-12-07T03:27:35;15.53;;;8.73;;
5688;SDS011;2869;50.432;8.680;2022-12-07T03:30:07;18.40;;;10.77;;
5688;SDS011;2869;50.432;8.680;2022-12-07T03:32:37;16.03;;;8.40;;
5688;SDS011;2869;50.432;8.680;2022-12-07T03:35:09;16.67;;;9.47;;
5688;SDS011;2869;50.432;8.680;2022-12-07T03:37:42;16.33;;;9.13;;
5688;SDS011;2869;50.432;8.680;2022-12-07T03:40:14;18.70;;;10.17;;
5688;SDS011;2869;50.432;8.680;2022-12-07T03:42:48;15.57;;;9.03;;
5688;SDS011;2869;50.432;8.680;2022-12-07T03:45:18;13.17;;;8.10;;
5688;SDS011;2869;50.432;8.680;2022-12-07T03:47:49;13.37;;;8.30;;
5688;SDS011;2869;50.432;8.680;2022-12-07T03:50:24;18.67;;;10.00;;
5688;SDS011;2869;50.432;8.680;2022-12-07T03:52:55;14.30;;;8.77;;
5688;SDS011;2869;50.432;8.680;2022-12-07T03:55:27;13.00;;;7.80;;
5688;SDS011;2869;50.432;8.680;2022-12-07T03:57:56;16.13;;;8.77;;
5688;SDS011;2869;50.432;8.680;2022-12-07T04:00:28;13.50;;;8.43;;
5688;SDS011;2869;50.432;8.680;2022-12-07T04:02:55;14.30;;;8.90;;
5688;SDS011;2869;50.432;8.680;2022-12-07T04:05:22;14.50;;;9.30;;
5688;SDS011;2869;50.432;8.680;2022-12-07T04:07:49;16.97;;;9.00;;
5688;SDS011;2869;50.432;8.680;2022-12-07T04:10:16;16.23;;;9.07;;
5688;SDS011;2869;50.432;8.680;2022-12-07T04:12:43;17.53;;;9.40;;
5688;SDS011;2869;50.432;8.680;2022-12-07T04:15:10;18.57;;;10.07;;
5688;SDS011;2869;50.432;8.680;2022-12-07T04:17:38;19.40;;;9.90;;
5688;SDS011;2869;50.432;8.680;2022-12-07T04:20:05;16.50;;;9.90;;
5688;SDS011;2869;50.432;8.680;2022-12-07T04:22:33;22.47;;;10.83;;
5688;SDS011;2869;50.432;8.680;2022-12-07T04:25:00;21.07;;;11.47;;
5688;SDS011;2869;50.432;8.680;2022-12-07T04:27:26;24.13;;;12.87;;
5688;SDS011;2869;50.432;8.680;2022-12-07T04:29:53;22.57;;;11.03;;
5688;SDS011;2869;50.432;8.680;2022-12-07T04:32:20;28.63;;;12.50;;
5688;SDS011;2869;50.432;8.680;2022-12-07T04:34:48;24.47;;;12.20;;
5688;SDS011;2869;50.432;8.680;2022-12-07T04:37:15;21.00;;;11.73;;
5688;SDS011;2869;50.432;8.680;2022-12-07T04:39:42;23.13;;;12.53;;
5688;SDS011;2869;50.432;8.680;2022-12-07T04:42:09;22.77;;;11.13;;
5688;SDS011;2869;50.432;8.680;2022-12-07T04:44:37;22.20;;;12.13;;
5688;SDS011;2869;50.432;8.680;2022-12-07T04:47:04;20.90;;;11.30;;
5688;SDS011;2869;50.432;8.680;2022-12-07T04:49:31;20.37;;;11.50;;
5688;SDS011;2869;50.432;8.680;2022-12-07T04:51:59;23.17;;;11.00;;
5688;SDS011;2869;50.432;8.680;2022-12-07T04:54:26;18.83;;;10.17;;
5688;SDS011;2869;50.432;8.680;2022-12-07T04:56:52;18.57;;;11.10;;
5688;SDS011;2869;50.432;8.680;2022-12-07T04:59:19;15.67;;;10.30;;
5688;SDS011;2869;50.432;8.680;2022-12-07T05:01:46;16.80;;;10.33;;
5688;SDS011;2869;50.432;8.680;2022-12-07T05:04:12;21.53;;;12.00;;
5688;SDS011;2869;50.432;8.680;2022-12-07T05:06:41;19.73;;;9.93;;
5688;SDS011;2869;50.432;8.680;2022-12-07T05:09:09;20.33;;;12.20;;
5688;SDS011;2869;50.432;8.680;2022-12-07T05:11:36;22.80;;;12.33;;
5688;SDS011;2869;50.432;8.680;2022-12-07T05:14:06;18.03;;;11.17;;
5688;SDS011;2869;50.432;8.680;2022-12-07T05:16:36;23.43;;;12.10;;
5688;SDS011;2869;50.432;8.680;2022-12-07T05:19:04;20.57;;;11.43;;
5688;SDS011;2869;50.432;8.680;2022-12-07T05:21:31;19.97;;;12.37;;
5688;SDS011;2869;50.432;8.680;2022-12-07T05:23:57;21.70;;;12.17;;
5688;SDS011;2869;50.432;8.680;2022-12-07T05:26:25;23.47;;;12.60;;
5688;SDS011;2869;50.432;8.680;2022-12-07T05:28:52;20.87;;;11.43;;
5688;SDS011;2869;50.432;8.680;2022-12-07T05:31:20;19.97;;;11.90;;
5688;SDS011;2869;50.432;8.680;2022-12-07T05:33:47;22.27;;;11.80;;
5688;SDS011;2869;50.432;8.680;2022-12-07T05:36:14;21.97;;;12.40;;
5688;SDS011;2869;50.432;8.680;2022-12-07T05:38:41;20.67;;;11.90;;
5688;SDS011;2869;50.432;8.680;2022-12-07T05:41:08;21.97;;;12.63;;
5688;SDS011;2869;50.432;8.680;2022-12-07T05:43:59;24.60;;;13.13;;
5688;SDS011;2869;50.432;8.680;2022-12-07T05:46:26;29.60;;;14.93;;
5688;SDS011;2869;50.432;8.680;2022-12-07T05:48:53;26.20;;;14.30;;
5688;SDS011;2869;50.432;8.680;2022-12-07T05:51:19;26.03;;;13.90;;
5688;SDS011;2869;50.432;8.680;2022-12-07T05:53:46;25.43;;;13.23;;
5688;SDS011;2869;50.432;8.680;2022-12-07T05:56:13;24.70;;;13.53;;
5688;SDS011;2869;50.432;8.680;2022-12-07T05:58:40;24.80;;;12.60;;
5688;SDS011;2869;50.432;8.680;2022-12-07T06:01:26;25.00;;;12.90;;
5688;SDS011;2869;50.432;8.680;2022-12-07T06:03:53;27.07;;;13.53;;
5688;SDS011;2869;50.432;8.680;2022-12-07T06:06:19;22.40;;;12.30;;
5688;SDS011;2869;50.432;8.680;2022-12-07T06:08:46;25.00;;;12.73;;
5688;SDS011;2869;50.432;8.680;2022-12-07T06:11:13;22.90;;;12.53;;
5688;SDS011;2869;50.432;8.680;2022-12-07T06:13:57;21.67;;;10.50;;
5688;SDS011;2869;50.432;8.680;2022-12-07T06:16:23;20.60;;;12.00;;
5688;SDS011;2869;50.432;8.680;2022-12-07T06:18:51;21.37;;;11.30;;
5688;SDS011;2869;50.432;8.680;2022-12-07T06:21:18;14.87;;;10.23;;
5688;SDS011;2869;50.432;8.680;2022-12-07T06:23:45;18.17;;;11.10;;
5688;SDS011;2869;50.432;8.680;2022-12-07T06:26:12;20.67;;;11.33;;
5688;SDS011;2869;50.432;8.680;2022-12-07T06:28:39;20.73;;;11.70;;
5688;SDS011;2869;50.432;8.680;2022-12-07T06:31:06;18.07;;;10.33;;
5688;SDS011;2869;50.432;8.680;2022-12-07T06:33:35;17.10;;;9.57;;
5688;SDS011;2869;50.432;8.680;2022-12-07T06:36:01;17.37;;;9.50;;
5688;SDS011;2869;50.432;8.680;2022-12-07T06:38:28;16.90;;;10.10;;
5688;SDS011;2869;50.432;8.680;2022-12-07T06:40:55;16.07;;;9.37;;
5688;SDS011;2869;50.432;8.680;2022-12-07T06:43:22;16.90;;;9.10;;
5688;SDS011;2869;50.432;8.680;2022-12-07T06:45:48;14.33;;;8.53;;
5688;SDS011;2869;50.432;8.680;2022-12-07T06:48:15;15.60;;;9.07;;
5688;SDS011;2869;50.432;8.680;2022-12-07T06:50:45;17.33;;;9.63;;
5688;SDS011;2869;50.432;8.680;2022-12-07T06:53:12;14.77;;;8.73;;
5688;SDS011;2869;50.432;8.680;2022-12-07T06:55:38;17.63;;;9.07;;
5688;SDS011;2869;50.432;8.680;2022-12-07T06:58:05;17.13;;;9.60;;
5688;SDS011;2869;50.432;8.680;2022-12-07T07:00:32;17.87;;;9.47;;
5688;SDS011;2869;50.432;8.680;2022-12-07T07:02:59;17.70;;;10.10;;
5688;SDS011;2869;50.432;8.680;2022-12-07T07:05:26;14.20;;;9.00;;
5688;SDS011;2869;50.432;8.680;2022-12-07T07:07:54;22.23;;;9.63;;
5688;SDS011;2869;50.432;8.680;2022-12-07T07:10:21;15.87;;;9.83;;
5688;SDS011;2869;50.432;8.680;2022-12-07T07:12:47;14.10;;;9.20;;
5688;SDS011;2869;50.432;8.680;2022-12-07T07:15:14;20.90;;;10.60;;
5688;SDS011;2869;50.432;8.680;2022-12-07T07:17:41;17.83;;;9.47;;
5688;SDS011;2869;50.432;8.680;2022-12-07T07:20:08;14.10;;;9.00;;
5688;SDS011;2869;50.432;8.680;2022-12-07T07:22:35;17.10;;;9.77;;
5688;SDS011;2869;50.432;8.680;2022-12-07T07:25:03;14.17;;;8.73;;
5688;SDS011;2869;50.432;8.680;2022-12-07T07:27:30;15.50;;;9.67;;
5688;SDS011;2869;50.432;8.680;2022-12-07T07:29:57;15.17;;;9.67;;
5688;SDS011;2869;50.432;8.680;2022-12-07T07:32:24;22.47;;;10.27;;
5688;SDS011;2869;50.432;8.680;2022-12-07T07:34:50;17.90;;;9.47;;
5688;SDS011;2869;50.432;8.680;2022-12-07T07:37:17;16.00;;;9.87;;
5688;SDS011;2869;50.432;8.680;2022-12-07T07:39:44;16.10;;;9.90;;
5688;SDS011;2869;50.432;8.680;2022-12-07T07:42:12;20.30;;;10.23;;
5688;SDS011;2869;50.432;8.680;2022-12-07T07:44:38;18.93;;;11.17;;
5688;SDS011;2869;50.432;8.680;2022-12-07T07:47:05;18.43;;;9.83;;
5688;SDS011;2869;50.432;8.680;2022-12-07T07:49:32;17.77;;;9.60;;
5688;SDS011;2869;50.432;8.680;2022-12-07T07:51:59;17.90;;;10.80;;
5688;SDS011;2869;50.432;8.680;2022-12-07T07:54:25;19.57;;;10.20;;
5688;SDS011;2869;50.432;8.680;2022-12-07T07:56:52;22.13;;;10.87;;
5688;SDS011;2869;50.432;8.680;2022-12-07T07:59:20;18.10;;;10.63;;
5688;SDS011;2869;50.432;8.680;2022-12-07T08:01:47;16.97;;;9.87;;
5688;SDS011;2869;50.432;8.680;2022-12-07T08:04:13;21.17;;;9.87;;
5688;SDS011;2869;50.432;8.680;2022-12-07T08:06:41;12.10;;;8.33;;
5688;SDS011;2869;50.432;8.680;2022-12-07T08:09:08;15.93;;;9.50;;
5688;SDS011;2869;50.432;8.680;2022-12-07T08:11:35;19.13;;;9.80;;
5688;SDS011;2869;50.432;8.680;2022-12-07T08:14:02;22.10;;;10.50;;
5688;SDS011;2869;50.432;8.680;2022-12-07T08:16:30;19.13;;;9.83;;
5688;SDS011;2869;50.432;8.680;2022-12-07T08:18:57;14.10;;;9.20;;
5688;SDS011;2869;50.432;8.680;2022-12-07T08:21:23;15.00;;;9.33;;
5688;SDS011;2869;50.432;8.680;2022-12-07T08:23:50;21.53;;;9.50;;
5688;SDS011;2869;50.432;8.680;2022-12-07T08:26:17;16.67;;;9.60;;
5688;SDS011;2869;50.432;8.680;2022-12-07T08:28:43;16.00;;;9.13;;
5688;SDS011;2869;50.432;8.680;2022-12-07T08:31:11;15.23;;;9.40;;
5688;SDS011;2869;50.432;8.680;2022-12-07T08:33:41;18.53;;;9.90;;
5688;SDS011;2869;50.432;8.680;2022-12-07T08:36:09;14.00;;;9.10;;
5688;SDS011;2869;50.432;8.680;2022-12-07T08:38:37;18.27;;;9.90;;
5688;SDS011;2869;50.432;8.680;2022-12-07T08:41:05;19.47;;;10.20;;
5688;SDS011;2869;50.432;8.680;2022-12-07T08:43:33;13.80;;;8.33;;
5688;SDS011;2869;50.432;8.680;2022-12-07T08:46:03;16.33;;;9.87;;
5688;SDS011;2869;50.432;8.680;2022-12-07T08:48:33;13.40;;;9.10;;
5688;SDS011;2869;50.432;8.680;2022-12-07T08:51:03;10.40;;;6.97;;
5688;SDS011;2869;50.432;8.680;2022-12-07T08:53:30;13.90;;;8.20;;
5688;SDS011;2869;50.432;8.680;2022-12-07T08:55:59;12.80;;;8.37;;
5688;SDS011;2869;50.432;8.680;2022-12-07T08:58:26;11.90;;;8.10;;
5688;SDS011;2869;50.432;8.680;2022-12-07T09:00:53;13.47;;;7.80;;
5688;SDS011;2869;50.432;8.680;2022-12-07T09:03:19;10.00;;;7.20;;
5688;SDS011;2869;50.432;8.680;2022-12-07T09:05:46;10.90;;;6.93;;
5688;SDS011;2869;50.432;8.680;2022-12-07T09:08:14;13.40;;;6.07;;
5688;SDS011;2869;50.432;8.680;2022-12-07T09:10:41;11.73;;;6.30;;
5688;SDS011;2869;50.432;8.680;2022-12-07T09:13:08;11.03;;;6.37;;
5688;SDS011;2869;50.432;8.680;2022-12-07T09:15:35;7.60;;;6.30;;
5688;SDS011;2869;50.432;8.680;2022-12-07T09:18:01;9.10;;;6.70;;
5688;SDS011;2869;50.432;8.680;2022-12-07T09:20:28;10.47;;;6.77;;
5688;SDS011;2869;50.432;8.680;2022-12-07T09:22:55;15.53;;;6.47;;
5688;SDS011;2869;50.432;8.680;2022-12-07T09:25:23;9.27;;;6.30;;
5688;SDS011;2869;50.432;8.680;2022-12-07T09:27:54;7.37;;;6.10;;
5688;SDS011;2869;50.432;8.680;2022-12-07T09:30:21;11.60;;;5.70;;
5688;SDS011;2869;50.432;8.680;2022-12-07T09:32:48;11.57;;;6.07;;
5688;SDS011;2869;50.432;8.680;2022-12-07T09:35:15;10.53;;;5.77;;
5688;SDS011;2869;50.432;8.680;2022-12-07T09:37:41;11.33;;;5.90;;
5688;SDS011;2869;50.432;8.680;2022-12-07T09:40:08;7.83;;;5.20;;
5688;SDS011;2869;50.432;8.680;2022-12-07T09:42:37;9.50;;;5.47;;
5688;SDS011;2869;50.432;8.680;2022-12-07T09:45:11;10.77;;;5.13;;
5688;SDS011;2869;50.432;8.680;2022-12-07T09:47:41;7.60;;;6.07;;
5688;SDS011;2869;50.432;8.680;2022-12-07T09:50:12;13.30;;;5.17;;
5688;SDS011;2869;50.432;8.680;2022-12-07T09:52:39;14.13;;;6.70;;
5688;SDS011;2869;50.432;8.680;2022-12-07T09:55:11;8.90;;;5.30;;
5688;SDS011;2869;50.432;8.680;2022-12-07T09:57:40;7.60;;;4.97;;
5688;SDS011;2869;50.432;8.680;2022-12-07T10:00:10;6.93;;;5.00;;
5688;SDS011;2869;50.432;8.680;2022-12-07T10:02:41;8.93;;;5.00;;
5688;SDS011;2869;50.432;8.680;2022-12-07T10:05:10;12.63;;;4.50;;
5688;SDS011;2869;50.432;8.680;2022-12-07T10:07:39;10.07;;;5.57;;
5688;SDS011;2869;50.432;8.680;2022-12-07T10:10:09;5.90;;;5.23;;
5688;SDS011;2869;50.432;8.680;2022-12-07T10:12:53;8.30;;;5.40;;
5688;SDS011;2869;50.432;8.680;2022-12-07T10:15:21;9.77;;;5.53;;
5688;SDS011;2869;50.432;8.680;2022-12-07T10:17:48;8.53;;;5.00;;
5688;SDS011;2869;50.432;8.680;2022-12-07T10:20:19;10.53;;;5.80;;
5688;SDS011;2869;50.432;8.680;2022-12-07T10:22:54;6.60;;;5.90;;
5688;SDS011;2869;50.432;8.680;2022-12-07T10:25:24;8.60;;;4.90;;
5688;SDS011;2869;50.432;8.680;2022-12-07T10:28:00;7.70;;;5.23;;
5688;SDS011;2869;50.432;8.680;2022-12-07T10:30:45;5.83;;;5.03;;
5688;SDS011;2869;50.432;8.680;2022-12-07T10:33:16;8.07;;;5.23;;
5688;SDS011;2869;50.432;8.680;2022-12-07T10:35:58;9.87;;;5.57;;
5688;SDS011;2869;50.432;8.680;2022-12-07T10:38:26;7.00;;;5.40;;
5688;SDS011;2869;50.432;8.680;2022-12-07T10:41:02;14.60;;;6.67;;
5688;SDS011;2869;50.432;8.680;2022-12-07T10:43:31;8.53;;;5.03;;
5688;SDS011;2869;50.432;8.680;2022-12-07T10:46:06;8.63;;;5.63;;
5688;SDS011;2869;50.432;8.680;2022-12-07T10:48:50;6.60;;;5.47;;
5688;SDS011;2869;50.432;8.680;2022-12-07T10:51:31;10.67;;;5.80;;
5688;SDS011;2869;50.432;8.680;2022-12-07T10:54:09;10.97;;;6.10;;
5688;SDS011;2869;50.432;8.680;2022-12-07T10:56:49;11.43;;;5.80;;
5688;SDS011;2869;50.432;8.680;2022-12-07T10:59:33;7.90;;;5.27;;
5688;SDS011;2869;50.432;8.680;2022-12-07T11:02:35;10.77;;;5.80;;
5688;SDS011;2869;50.432;8.680;2022-12-07T11:05:15;8.53;;;5.40;;
5688;SDS011;2869;50.432;8.680;2022-12-07T11:07:51;7.83;;;5.10;;
5688;SDS011;2869;50.432;8.680;2022-12-07T11:10:29;10.30;;;5.53;;
5688;SDS011;2869;50.432;8.680;2022-12-07T11:13:11;12.07;;;7.23;;
5688;SDS011;2869;50.432;8.680;2022-12-07T11:15:52;10.97;;;5.80;;
5688;SDS011;2869;50.432;8.680;2022-12-07T11:18:26;10.03;;;5.37;;
5688;SDS011;2869;50.432;8.680;2022-12-07T11:20:58;6.80;;;5.00;;
5688;SDS011;2869;50.432;8.680;2022-12-07T11:23:37;10.00;;;5.50;;
5688;SDS011;2869;50.432;8.680;2022-12-07T11:26:12;8.53;;;5.40;;
5688;SDS011;2869;50.432;8.680;2022-12-07T11:28:56;13.07;;;6.00;;
5688;SDS011;2869;50.432;8.680;2022-12-07T11:31:48;9.83;;;5.93;;
5688;SDS011;2869;50.432;8.680;2022-12-07T11:34:24;7.27;;;4.93;;
5688;SDS011;2869;50.432;8.680;2022-12-07T11:37:01;8.60;;;5.10;;
5688;SDS011;2869;50.432;8.680;2022-12-07T11:39:30;10.17;;;5.63;;
5688;SDS011;2869;50.432;8.680;2022-12-07T11:42:02;8.87;;;5.10;;
5688;SDS011;2869;50.432;8.680;2022-12-07T11:44:33;5.47;;;4.63;;
5688;SDS011;2869;50.432;8.680;2022-12-07T11:47:07;13.57;;;5.00;;
5688;SDS011;2869;50.432;8.680;2022-12-07T11:49:40;10.10;;;5.47;;
5688;SDS011;2869;50.432;8.680;2022-12-07T11:52:13;10.07;;;5.13;;
5688;SDS011;2869;50.432;8.680;2022-12-07T11:54:45;6.60;;;5.00;;
5688;SDS011;2869;50.432;8.680;2022-12-07T11:57:17;11.43;;;6.00;;
5688;SDS011;2869;50.432;8.680;2022-12-07T11:59:51;11.50;;;5.10;;
5688;SDS011;2869;50.432;8.680;2022-12-07T12:02:25;7.80;;;4.90;;
5688;SDS011;2869;50.432;8.680;2022-12-07T12:04:58;10.80;;;5.47;;
5688;SDS011;2869;50.432;8.680;2022-12-07T12:07:31;13.33;;;4.73;;
5688;SDS011;2869;50.432;8.680;2022-12-07T12:10:00;9.37;;;5.00;;
5688;SDS011;2869;50.432;8.680;2022-12-07T12:12:33;9.83;;;4.40;;
5688;SDS011;2869;50.432;8.680;2022-12-07T12:15:20;7.20;;;4.30;;
5688;SDS011;2869;50.432;8.680;2022-12-07T12:20:55;15.50;;;4.73;;
5688;SDS011;2869;50.432;8.680;2022-12-07T12:23:28;9.50;;;5.43;;
5688;SDS011;2869;50.432;8.680;2022-12-07T12:26:03;8.20;;;3.73;;
5688;SDS011;2869;50.432;8.680;2022-12-07T12:28:33;8.40;;;3.47;;
5688;SDS011;2869;50.432;8.680;2022-12-07T12:31:10;10.00;;;3.43;;
5688;SDS011;2869;50.432;8.680;2022-12-07T12:33:43;4.00;;;2.67;;
5688;SDS011;2869;50.432;8.680;2022-12-07T12:36:19;6.17;;;3.17;;
5688;SDS011;2869;50.432;8.680;2022-12-07T12:38:49;5.57;;;2.97;;
5688;SDS011;2869;50.432;8.680;2022-12-07T12:44:40;10.77;;;3.60;;
5688;SDS011;2869;50.432;8.680;2022-12-07T12:47:52;8.33;;;3.40;;
5688;SDS011;2869;50.432;8.680;2022-12-07T12:50:23;9.50;;;4.33;;
5688;SDS011;2869;50.432;8.680;2022-12-07T12:52:52;7.10;;;3.40;;
5688;SDS011;2869;50.432;8.680;2022-12-07T12:55:30;9.23;;;4.17;;
5688;SDS011;2869;50.432;8.680;2022-12-07T13:01:45;8.07;;;3.30;;
5688;SDS011;2869;50.432;8.680;2022-12-07T13:04:26;6.80;;;3.10;;
5688;SDS011;2869;50.432;8.680;2022-12-07T13:07:04;10.10;;;3.70;;
5688;SDS011;2869;50.432;8.680;2022-12-07T13:09:36;9.20;;;4.47;;
5688;SDS011;2869;50.432;8.680;2022-12-07T13:12:11;5.50;;;3.83;;
5688;SDS011;2869;50.432;8.680;2022-12-07T13:14:41;7.63;;;4.03;;
5688;SDS011;2869;50.432;8.680;2022-12-07T13:23:13;5.40;;;3.60;;
5688;SDS011;2869;50.432;8.680;2022-12-07T13:25:45;9.90;;;5.63;;
5688;SDS011;2869;50.432;8.680;2022-12-07T13:28:17;7.80;;;3.20;;
5688;SDS011;2869;50.432;8.680;2022-12-07T13:30:47;12.50;;;3.60;;
5688;SDS011;2869;50.432;8.680;2022-12-07T13:33:24;8.13;;;4.00;;
5688;SDS011;2869;50.432;8.680;2022-12-07T13:35:54;6.17;;;3.93;;
5688;SDS011;2869;50.432;8.680;2022-12-07T13:38:25;7.83;;;4.03;;
5688;SDS011;2869;50.432;8.680;2022-12-07T13:41:04;7.20;;;3.77;;
5688;SDS011;2869;50.432;8.680;2022-12-07T13:43:42;6.43;;;4.07;;
5688;SDS011;2869;50.432;8.680;2022-12-07T13:46:14;11.10;;;4.17;;
5688;SDS011;2869;50.432;8.680;2022-12-07T13:48:44;8.77;;;4.03;;
5688;SDS011;2869;50.432;8.680;2022-12-07T13:51:17;7.00;;;3.60;;
5688;SDS011;2869;50.432;8.680;2022-12-07T13:53:47;7.77;;;4.30;;
5688;SDS011;2869;50.432;8.680;2022-12-07T13:56:14;8.63;;;4.40;;
5688;SDS011;2869;50.432;8.680;2022-12-07T13:58:41;6.03;;;4.30;;
5688;SDS011;2869;50.432;8.680;2022-12-07T14:01:08;9.60;;;4.40;;
5688;SDS011;2869;50.432;8.680;2022-12-07T14:03:35;10.87;;;4.13;;
5688;SDS011;2869;50.432;8.680;2022-12-07T14:06:04;8.00;;;3.97;;
5688;SDS011;2869;50.432;8.680;2022-12-07T14:08:33;9.60;;;4.40;;
5688;SDS011;2869;50.432;8.680;2022-12-07T14:11:01;6.50;;;4.40;;
5688;SDS011;2869;50.432;8.680;2022-12-07T14:13:29;9.70;;;4.37;;
5688;SDS011;2869;50.432;8.680;2022-12-07T14:15:58;9.67;;;5.00;;
5688;SDS011;2869;50.432;8.680;2022-12-07T14:18:26;11.00;;;4.83;;
5688;SDS011;2869;50.432;8.680;2022-12-07T14:21:02;9.20;;;4.90;;
5688;SDS011;2869;50.432;8.680;2022-12-07T14:23:30;6.63;;;4.40;;
5688;SDS011;2869;50.432;8.680;2022-12-07T14:26:05;6.90;;;4.60;;
5688;SDS011;2869;50.432;8.680;2022-12-07T14:28:34;6.83;;;4.30;;
5688;SDS011;2869;50.432;8.680;2022-12-07T14:31:02;9.60;;;4.90;;
5688;SDS011;2869;50.432;8.680;2022-12-07T14:33:35;5.63;;;4.23;;
5688;SDS011;2869;50.432;8.680;2022-12-07T14:36:01;10.47;;;4.40;;
5688;SDS011;2869;50.432;8.680;2022-12-07T14:38:28;7.20;;;4.27;;
5688;SDS011;2869;50.432;8.680;2022-12-07T14:40:55;12.83;;;5.57;;
5688;SDS011;2869;50.432;8.680;2022-12-07T14:43:45;11.90;;;4.60;;
5688;SDS011;2869;50.432;8.680;2022-12-07T14:46:12;6.33;;;4.40;;
5688;SDS011;2869;50.432;8.680;2022-12-07T14:48:38;7.37;;;4.00;;
5688;SDS011;2869;50.432;8.680;2022-12-07T14:51:05;16.67;;;4.77;;
5688;SDS011;2869;50.432;8.680;2022-12-07T14:53:35;6.80;;;4.50;;
5688;SDS011;2869;50.432;8.680;2022-12-07T14:56:06;5.00;;;3.73;;
5688;SDS011;2869;50.432;8.680;2022-12-07T14:58:33;9.00;;;4.43;;
5688;SDS011;2869;50.432;8.680;2022-12-07T15:01:01;9.10;;;5.27;;
5688;SDS011;2869;50.432;8.680;2022-12-07T15:03:28;5.43;;;3.97;;
5688;SDS011;2869;50.432;8.680;2022-12-07T15:05:55;9.33;;;4.13;;
5688;SDS011;2869;50.432;8.680;2022-12-07T15:08:21;7.17;;;4.10;;
5688;SDS011;2869;50.432;8.680;2022-12-07T15:10:49;6.17;;;4.30;;
5688;SDS011;2869;50.432;8.680;2022-12-07T15:13:16;10.93;;;4.83;;
5688;SDS011;2869;50.432;8.680;2022-12-07T15:16:01;6.70;;;4.23;;
5688;SDS011;2869;50.432;8.680;2022-12-07T15:18:28;7.27;;;4.10;;
5688;SDS011;2869;50.432;8.680;2022-12-07T15:20:55;11.50;;;4.47;;
5688;SDS011;2869;50.432;8.680;2022-12-07T15:23:21;7.10;;;4.70;;
5688;SDS011;2869;50.432;8.680;2022-12-07T15:25:48;7.43;;;4.30;;
5688;SDS011;2869;50.432;8.680;2022-12-07T15:28:15;6.50;;;4.67;;
5688;SDS011;2869;50.432;8.680;2022-12-07T15:30:43;5.50;;;4.70;;
5688;SDS011;2869;50.432;8.680;2022-12-07T15:33:11;11.27;;;4.73;;
5688;SDS011;2869;50.432;8.680;2022-12-07T15:35:39;7.63;;;4.37;;
5688;SDS011;2869;50.432;8.680;2022-12-07T15:38:06;6.37;;;3.70;;
5688;SDS011;2869;50.432;8.680;2022-12-07T15:40:33;7.03;;;3.67;;